Air Navigation Services of Czech Republic
Airport: LKCV Updated:  25.03.2017 07:06:05  UTC
 METAR LKCV 25.03. 07:00 ...
METAR LKCV 250700Z 11002KT CAVOK 02/00 Q1030 NOSIG=
 TAF LKCV 25.03. 05:00 AMD
TAF AMD LKCV 250500Z 2506/2606 VRB02KT CAVOK      BECMG 2510/2512 33006KT      BECMG 2600/2602 04005KT=